Time;durP1;ratioP1;P1;durP2;ratioP2;P2;SDS_P1;SDS_P2;PMS_P1;PMS_P2;Temp;Humidity;BMP_temperature;BMP_pressure;BME280_temperature;BME280_humidity;BME280_pressure;Samples;Min_cycle;Max_cycle;Signal;HPM_P1;HPM_P2
2024/04/21 00:01:55;;;;;;;11.32;6.65;;;;;;;-145.63;100.00;61273.97;4987247;28;20403;-66
2024/04/21 00:04:21;;;;;;;10.15;7.30;;;;;;;-145.63;100.00;61273.97;4983548;28;20030;-67
2024/04/21 00:06:47;;;;;;;10.32;7.00;;;;;;;-145.63;100.00;61273.97;4983366;28;20076;-68
2024/04/21 00:09:13;;;;;;;9.05;6.82;;;;;;;-145.63;100.00;61273.97;4986921;28;20029;-67
2024/04/21 00:11:38;;;;;;;11.95;7.22;;;;;;;-145.63;100.00;61273.97;4988212;28;20035;-66
2024/04/21 00:14:04;;;;;;;8.23;6.15;;;;;;;-145.63;100.00;61273.97;4990392;28;20423;-66
2024/04/21 00:16:30;;;;;;;9.90;6.88;;;;;;;-145.63;100.00;61273.97;4988407;28;20410;-66
2024/04/21 00:18:55;;;;;;;9.63;7.18;;;;;;;-145.63;100.00;61273.97;4984536;28;20031;-67
2024/04/21 00:21:21;;;;;;;10.20;7.65;;;;;;;-145.63;100.00;61273.97;4981972;28;20027;-66
2024/04/21 00:23:46;;;;;;;9.27;7.75;;;;;;;-145.63;100.00;61273.97;4981612;28;20030;-65
2024/04/21 00:26:12;;;;;;;10.60;6.95;;;;;;;-145.63;100.00;61273.97;4983116;28;20059;-67
2024/04/21 00:28:38;;;;;;;8.95;7.35;;;;;;;-145.63;100.00;61273.97;4983422;28;20093;-66
2024/04/21 00:31:03;;;;;;;10.48;7.50;;;;;;;-145.63;100.00;61273.97;4984530;28;20065;-66
2024/04/21 00:33:29;;;;;;;9.07;7.68;;;;;;;-145.63;100.00;61273.97;4981100;28;20432;-67
2024/04/21 00:35:55;;;;;;;10.88;6.78;;;;;;;-145.63;100.00;61273.97;4980795;28;20089;-68
2024/04/21 00:38:20;;;;;;;9.85;6.75;;;;;;;-145.63;100.00;61273.97;4974254;28;20152;-68
2024/04/21 00:40:46;;;;;;;9.57;6.25;;;;;;;-145.63;100.00;61273.97;4983252;28;20031;-67
2024/04/21 00:43:11;;;;;;;8.55;6.57;;;;;;;-145.63;100.00;61273.97;4982584;28;20058;-68
2024/04/21 00:45:41;;;;;;;10.45;6.88;;;;;;;-145.63;100.00;61273.97;4987463;28;20023;-69
2024/04/21 00:48:08;;;;;;;7.93;6.00;;;;;;;-145.63;100.00;61273.97;4987773;28;20053;-67
2024/04/21 00:50:35;;;;;;;8.90;6.50;;;;;;;-145.63;100.00;61273.97;4989854;28;20069;-68
2024/04/21 00:53:01;;;;;;;8.52;6.30;;;;;;;-145.63;100.00;61273.97;4977205;28;20106;-68
2024/04/21 00:55:28;;;;;;;7.90;5.90;;;;;;;-145.63;100.00;61273.97;4981978;28;20030;-69
2024/04/21 00:57:54;;;;;;;9.18;5.85;;;;;;;-145.63;100.00;61273.97;4983062;28;20479;-68
2024/04/21 01:00:22;;;;;;;7.50;5.70;;;;;;;-145.63;100.00;61273.97;4985501;28;20087;-68
2024/04/21 01:02:49;;;;;;;10.50;6.25;;;;;;;-145.63;100.00;61273.97;4982805;28;20049;-69
2024/04/21 01:05:15;;;;;;;8.40;5.32;;;;;;;-145.63;100.00;61273.97;4987525;28;20423;-67
2024/04/21 01:07:41;;;;;;;8.95;5.85;;;;;;;-145.63;100.00;61273.97;4974431;28;20035;-65
2024/04/21 01:10:07;;;;;;;8.02;5.82;;;;;;;-145.63;100.00;61273.97;4977775;28;20080;-65
2024/04/21 01:12:42;;;;;;;8.68;5.82;;;;;;;-145.63;100.00;61273.97;4983908;28;20027;-64
2024/04/21 01:15:09;;;;;;;9.20;6.07;;;;;;;-145.63;100.00;61273.97;4981109;28;20113;-67
2024/04/21 01:17:36;;;;;;;8.80;6.45;;;;;;;-145.63;100.00;61273.97;4980021;28;20031;-66
2024/04/21 01:20:03;;;;;;;10.23;5.80;;;;;;;-145.63;100.00;61273.97;4984194;28;20093;-67
2024/04/21 01:22:30;;;;;;;11.30;5.90;;;;;;;-145.63;100.00;61273.97;4979877;28;20038;-66
2024/04/21 01:24:56;;;;;;;9.25;5.90;;;;;;;-145.63;100.00;61273.97;4986190;28;20030;-65
2024/04/21 01:27:22;;;;;;;11.90;5.70;;;;;;;-145.63;100.00;61273.97;4974939;28;20026;-66
2024/04/21 01:29:47;;;;;;;7.72;6.00;;;;;;;-145.63;100.00;61273.97;4982898;28;20042;-65
2024/04/21 01:32:17;;;;;;;8.60;5.47;;;;;;;-145.63;100.00;61273.97;4984609;28;20027;-65
2024/04/21 01:34:43;;;;;;;9.27;6.03;;;;;;;-145.63;100.00;61273.97;4980014;28;20456;-66
2024/04/21 01:37:09;;;;;;;10.18;5.47;;;;;;;-145.63;100.00;61273.97;4985797;28;20026;-66
2024/04/21 01:39:34;;;;;;;10.02;5.95;;;;;;;-145.63;100.00;61273.97;4981438;28;20034;-70
2024/04/21 01:42:00;;;;;;;7.30;5.60;;;;;;;-145.63;100.00;61273.97;4974978;28;20108;-68
2024/04/21 01:44:25;;;;;;;8.90;5.78;;;;;;;-145.63;100.00;61273.97;4977862;28;20058;-67
2024/04/21 01:46:51;;;;;;;9.02;5.80;;;;;;;-145.63;100.00;61273.97;4988705;28;20129;-67
2024/04/21 01:49:17;;;;;;;8.20;6.10;;;;;;;-145.63;100.00;61273.97;4980170;28;20066;-68
2024/04/21 01:51:42;;;;;;;7.18;5.68;;;;;;;-145.63;100.00;61273.97;4984409;28;20727;-66
2024/04/21 01:54:08;;;;;;;10.05;5.10;;;;;;;-145.63;100.00;61273.97;4980183;28;20130;-67
2024/04/21 01:56:33;;;;;;;7.22;5.28;;;;;;;-145.63;100.00;61273.97;4979304;28;20042;-66
2024/04/21 01:58:59;;;;;;;6.97;5.25;;;;;;;-145.63;100.00;61273.97;4978384;28;20042;-68
2024/04/21 02:01:25;;;;;;;10.23;5.80;;;;;;;-145.63;100.00;61273.97;4979961;28;20065;-67
2024/04/21 02:03:50;;;;;;;10.60;6.05;;;;;;;-145.63;100.00;61273.97;4980004;28;20062;-67
2024/04/21 02:06:16;;;;;;;8.15;5.97;;;;;;;-145.63;100.00;61273.97;4986949;28;20656;-68
2024/04/21 02:08:41;;;;;;;7.90;5.40;;;;;;;-145.63;100.00;61273.97;4981441;28;20030;-67
2024/04/21 02:11:07;;;;;;;14.18;5.65;;;;;;;-145.63;100.00;61273.97;4984879;28;20542;-67
2024/04/21 02:13:33;;;;;;;6.85;5.30;;;;;;;-145.63;100.00;61273.97;4976554;28;20505;-65
2024/04/21 02:15:58;;;;;;;6.90;4.88;;;;;;;-145.63;100.00;61273.97;4981630;28;20387;-66
2024/04/21 02:18:24;;;;;;;7.22;5.07;;;;;;;-145.63;100.00;61273.97;4980020;28;20062;-66
2024/04/21 02:20:50;;;;;;;10.05;5.30;;;;;;;-145.63;100.00;61273.97;4983566;28;20054;-67
2024/04/21 02:23:15;;;;;;;8.27;5.45;;;;;;;-145.63;100.00;61273.97;4983990;28;20041;-67
2024/04/21 02:25:41;;;;;;;7.63;5.45;;;;;;;-145.63;100.00;61273.97;4978364;28;20039;-68
2024/04/21 02:28:07;;;;;;;7.18;4.75;;;;;;;-145.63;100.00;61273.97;4976633;28;20053;-69
2024/04/21 02:30:33;;;;;;;7.18;4.82;;;;;;;-145.63;100.00;61273.97;4983201;28;20058;-68
2024/04/21 02:32:59;;;;;;;5.90;4.60;;;;;;;-145.63;100.00;61273.97;4985056;28;20034;-67
2024/04/21 02:35:24;;;;;;;8.82;4.68;;;;;;;-145.63;100.00;61273.97;4979869;28;20652;-67
2024/04/21 02:37:50;;;;;;;9.18;4.45;;;;;;;-145.63;100.00;61273.97;4987357;28;20087;-66
2024/04/21 02:40:15;;;;;;;7.15;4.28;;;;;;;-145.63;100.00;61273.97;4981139;28;20117;-66
2024/04/21 02:42:41;;;;;;;7.45;4.60;;;;;;;-145.63;100.00;61273.97;4984771;28;20026;-67
2024/04/21 02:45:07;;;;;;;7.63;4.45;;;;;;;-145.63;100.00;61273.97;4979074;28;20389;-67
2024/04/21 02:47:32;;;;;;;6.28;4.22;;;;;;;-145.63;100.00;61273.97;4980430;28;20037;-68
2024/04/21 02:49:58;;;;;;;8.07;4.72;;;;;;;-145.63;100.00;61273.97;4976007;28;20136;-68
2024/04/21 02:52:24;;;;;;;5.57;4.32;;;;;;;-145.63;100.00;61273.97;4983965;28;20054;-68
2024/04/21 02:54:49;;;;;;;7.68;4.90;;;;;;;-145.63;100.00;61273.97;4981421;28;20102;-67
2024/04/21 02:57:15;;;;;;;5.97;4.50;;;;;;;-145.63;100.00;61273.97;4978821;28;20073;-69
2024/04/21 02:59:41;;;;;;;6.78;5.00;;;;;;;-145.63;100.00;61273.97;4983287;28;20591;-67
2024/04/21 03:02:06;;;;;;;7.70;4.90;;;;;;;-145.63;100.00;61273.97;4984644;28;20053;-67
2024/04/21 03:04:34;;;;;;;7.00;4.57;;;;;;;-145.63;100.00;61273.97;4980313;28;20150;-66
2024/04/21 03:06:59;;;;;;;6.47;4.07;;;;;;;-145.63;100.00;61273.97;4982796;28;20034;-64
2024/04/21 03:09:25;;;;;;;6.78;4.40;;;;;;;-145.63;100.00;61273.97;4982522;28;20584;-66
2024/04/21 03:11:51;;;;;;;6.40;4.20;;;;;;;-145.63;100.00;61273.97;4973608;28;20034;-68
2024/04/21 03:14:16;;;;;;;9.20;4.22;;;;;;;-145.63;100.00;61273.97;4983630;28;20225;-69
2024/04/21 03:16:42;;;;;;;7.30;3.63;;;;;;;-145.63;100.00;61273.97;4981265;28;20022;-69
2024/04/21 03:19:08;;;;;;;6.70;3.80;;;;;;;-145.63;100.00;61273.97;4979967;28;20081;-67
2024/04/21 03:21:33;;;;;;;6.35;3.92;;;;;;;-145.63;100.00;61273.97;4982543;28;20057;-68
2024/04/21 03:23:59;;;;;;;7.30;3.53;;;;;;;-145.63;100.00;61273.97;4977934;28;20583;-69
2024/04/21 03:26:25;;;;;;;7.90;3.80;;;;;;;-145.63;100.00;61273.97;4981268;28;20031;-68
2024/04/21 03:28:50;;;;;;;16.17;3.63;;;;;;;-145.63;100.00;61273.97;4978661;28;20042;-68
2024/04/21 03:31:16;;;;;;;5.15;3.20;;;;;;;-145.63;100.00;61273.97;4979121;28;20030;-68
2024/04/21 03:33:42;;;;;;;4.25;3.17;;;;;;;-145.63;100.00;61273.97;4985265;28;20030;-67
2024/04/21 03:36:08;;;;;;;4.80;2.90;;;;;;;-145.63;100.00;61273.97;4984393;28;20031;-66
2024/04/21 03:38:36;;;;;;;4.75;3.22;;;;;;;-145.63;100.00;61273.97;4980515;28;20487;-68
2024/04/21 03:41:03;;;;;;;4.95;3.13;;;;;;;-145.63;100.00;61273.97;4981214;28;20030;-67
2024/04/21 03:43:28;;;;;;;4.88;3.15;;;;;;;-145.63;100.00;61273.97;4977450;28;20118;-67
2024/04/21 03:45:55;;;;;;;5.05;3.20;;;;;;;-145.63;100.00;61273.97;4981975;28;20137;-67
2024/04/21 03:48:22;;;;;;;5.55;3.20;;;;;;;-145.63;100.00;61273.97;4981707;28;20105;-67
2024/04/21 03:50:47;;;;;;;5.00;2.95;;;;;;;-145.63;100.00;61273.97;4984266;28;20494;-67
2024/04/21 03:53:16;;;;;;;4.60;3.47;;;;;;;-145.63;100.00;61273.97;4977199;28;20023;-67
2024/04/21 03:55:43;;;;;;;6.45;3.28;;;;;;;-145.63;100.00;61273.97;4980472;28;20037;-67
2024/04/21 03:58:08;;;;;;;5.80;3.38;;;;;;;-145.63;100.00;61273.97;4974747;28;20046;-67
2024/04/21 04:00:34;;;;;;;6.60;3.58;;;;;;;-145.63;100.00;61273.97;4981114;28;20034;-67
2024/04/21 04:03:00;;;;;;;3.78;3.22;;;;;;;-145.63;100.00;61273.97;4988171;28;20527;-67
2024/04/21 04:05:26;;;;;;;10.48;3.50;;;;;;;-145.63;100.00;61273.97;4985786;28;20453;-67
2024/04/21 04:07:51;;;;;;;6.30;3.80;;;;;;;-145.63;100.00;61273.97;4986966;28;20113;-68
2024/04/21 04:10:17;;;;;;;9.27;4.15;;;;;;;-145.63;100.00;61273.97;4989119;28;20395;-68
2024/04/21 04:12:44;;;;;;;5.13;3.85;;;;;;;-145.63;100.00;61273.97;4975744;28;20046;-67
2024/04/21 04:15:10;;;;;;;5.93;3.90;;;;;;;-145.63;100.00;61273.97;4988551;28;20116;-67
2024/04/21 04:17:36;;;;;;;6.45;3.83;;;;;;;-145.63;100.00;61273.97;4984863;28;20026;-66
2024/04/21 04:20:06;;;;;;;6.50;3.70;;;;;;;-145.63;100.00;61273.97;4985702;28;20179;-66
2024/04/21 04:22:32;;;;;;;6.68;3.55;;;;;;;-145.63;100.00;61273.97;4981156;28;20050;-66
2024/04/21 04:24:58;;;;;;;4.35;3.17;;;;;;;-145.63;100.00;61273.97;4986483;28;20033;-66
2024/04/21 04:27:24;;;;;;;5.65;3.47;;;;;;;-145.63;100.00;61273.97;4984437;28;20122;-67
2024/04/21 04:29:50;;;;;;;6.25;3.47;;;;;;;-145.63;100.00;61273.97;4983641;28;20089;-67
2024/04/21 04:32:15;;;;;;;3.85;3.20;;;;;;;-145.63;100.00;61273.97;4986302;28;20420;-67
2024/04/21 04:34:41;;;;;;;4.40;3.10;;;;;;;-145.63;100.00;61273.97;4984497;28;20030;-68
2024/04/21 04:37:06;;;;;;;4.47;3.60;;;;;;;-145.63;100.00;61273.97;4984563;28;20044;-67
2024/04/21 04:39:32;;;;;;;4.90;3.33;;;;;;;-145.63;100.00;61273.97;4986778;28;20030;-69
2024/04/21 04:41:58;;;;;;;3.75;3.20;;;;;;;-145.63;100.00;61273.97;4979255;28;20026;-67
2024/04/21 04:44:24;;;;;;;5.25;3.28;;;;;;;-145.63;100.00;61273.97;4979167;28;20031;-67
2024/04/21 04:46:50;;;;;;;5.85;3.33;;;;;;;-145.63;100.00;61273.97;4988365;28;20591;-67
2024/04/21 04:49:15;;;;;;;5.28;3.25;;;;;;;-145.63;100.00;61273.97;4983300;28;20034;-67
2024/04/21 04:51:41;;;;;;;4.05;3.55;;;;;;;-145.63;100.00;61273.97;4987758;28;20441;-65
2024/04/21 04:54:06;;;;;;;6.20;3.17;;;;;;;-145.63;100.00;61273.97;4980817;28;20027;-68
2024/04/21 04:56:32;;;;;;;6.75;3.50;;;;;;;-145.63;100.00;61273.97;4981564;28;20027;-69
2024/04/21 04:58:58;;;;;;;3.75;2.83;;;;;;;-145.63;100.00;61273.97;4976655;28;20124;-65
2024/04/21 05:01:23;;;;;;;5.47;3.40;;;;;;;-145.63;100.00;61273.97;4987760;28;20534;-69
2024/04/21 05:03:49;;;;;;;3.50;3.20;;;;;;;-145.63;100.00;61273.97;4984079;28;20085;-66
2024/04/21 05:06:14;;;;;;;3.50;2.85;;;;;;;-145.63;100.00;61273.97;4983835;28;20089;-69
2024/04/21 05:08:40;;;;;;;4.38;3.22;;;;;;;-145.63;100.00;61273.97;4979640;28;20050;-65
2024/04/21 05:11:06;;;;;;;4.63;2.80;;;;;;;-145.63;100.00;61273.97;4987200;28;20033;-66
2024/04/21 05:13:31;;;;;;;5.47;3.00;;;;;;;-145.63;100.00;61273.97;4985381;28;20050;-67
2024/04/21 05:15:57;;;;;;;4.47;2.85;;;;;;;-145.63;100.00;61273.97;4982852;28;20027;-66
2024/04/21 05:18:23;;;;;;;5.03;2.60;;;;;;;-145.63;100.00;61273.97;4974140;28;20399;-66
2024/04/21 05:20:57;;;;;;;5.68;3.30;;;;;;;-145.63;100.00;61273.97;4987149;28;20070;-68
2024/04/21 05:23:25;;;;;;;4.75;3.08;;;;;;;-145.63;100.00;61273.97;4984304;28;20062;-66
2024/04/21 05:25:52;;;;;;;4.30;3.30;;;;;;;-145.63;100.00;61273.97;4982009;28;20058;-64
2024/04/21 05:28:18;;;;;;;8.02;3.05;;;;;;;-145.63;100.00;61273.97;4987233;28;20057;-66
2024/04/21 05:30:44;;;;;;;7.82;3.47;;;;;;;-145.63;100.00;61273.97;4982777;28;20058;-66
2024/04/21 05:33:09;;;;;;;5.50;3.28;;;;;;;-145.63;100.00;61273.97;4975740;28;20761;-66
2024/04/21 05:35:35;;;;;;;5.93;3.78;;;;;;;-145.63;100.00;61273.97;4980382;28;20367;-67
2024/04/21 05:38:01;;;;;;;3.83;3.15;;;;;;;-145.63;100.00;61273.97;4979398;28;20034;-66
2024/04/21 05:40:27;;;;;;;4.28;3.55;;;;;;;-145.63;100.00;61273.97;4985388;28;20051;-66
2024/04/21 05:42:52;;;;;;;3.92;3.47;;;;;;;-145.63;100.00;61273.97;4988802;28;20030;-66
2024/04/21 05:45:18;;;;;;;6.97;3.55;;;;;;;-145.63;100.00;61273.97;4981962;28;20061;-66
2024/04/21 05:47:44;;;;;;;7.40;3.53;;;;;;;-145.63;100.00;61273.97;4981541;28;20046;-68
2024/04/21 05:50:10;;;;;;;3.97;3.35;;;;;;;-145.63;100.00;61273.97;4978121;28;20035;-67
2024/04/21 05:52:35;;;;;;;6.97;3.33;;;;;;;-145.63;100.00;61273.97;4986295;28;20539;-67
2024/04/21 05:55:02;;;;;;;7.72;3.90;;;;;;;-145.63;100.00;61273.97;4981828;28;20033;-66
2024/04/21 05:57:30;;;;;;;4.28;3.35;;;;;;;-145.63;100.00;61273.97;4980784;28;20509;-67
2024/04/21 05:59:56;;;;;;;4.80;3.53;;;;;;;-145.63;100.00;61273.97;4982704;28;20026;-67
2024/04/21 06:02:21;;;;;;;5.43;3.42;;;;;;;-145.63;100.00;61273.97;4988345;28;20041;-67
2024/04/21 06:04:47;;;;;;;5.63;3.60;;;;;;;-145.63;100.00;61273.97;4981257;28;20031;-68
2024/04/21 06:07:12;;;;;;;6.78;3.53;;;;;;;-145.63;100.00;61273.97;4984168;28;20093;-69
2024/04/21 06:09:40;;;;;;;5.22;3.35;;;;;;;-145.63;100.00;61273.97;4981033;28;20030;-68
2024/04/21 06:12:06;;;;;;;5.00;3.50;;;;;;;-145.63;100.00;61273.97;4982973;28;20140;-68
2024/04/21 06:14:32;;;;;;;4.63;3.88;;;;;;;-145.63;100.00;61273.97;4982352;28;20034;-67
2024/04/21 06:16:58;;;;;;;8.23;3.10;;;;;;;-145.63;100.00;61273.97;4974535;28;20545;-66
2024/04/21 06:19:24;;;;;;;11.25;3.70;;;;;;;-145.63;100.00;61273.97;4983408;28;20473;-65
2024/04/21 06:21:50;;;;;;;4.95;3.22;;;;;;;-145.63;100.00;61273.97;4985719;28;20034;-66
2024/04/21 06:24:15;;;;;;;6.90;3.45;;;;;;;-145.63;100.00;61273.97;4988989;28;20554;-65
2024/04/21 06:26:41;;;;;;;5.90;3.40;;;;;;;-145.63;100.00;61273.97;4982227;28;20035;-66
2024/04/21 06:29:07;;;;;;;4.60;3.60;;;;;;;-145.63;100.00;61273.97;4982916;28;20033;-66
2024/04/21 06:31:33;;;;;;;8.32;4.00;;;;;;;-145.63;100.00;61273.97;4978619;28;20031;-66
2024/04/21 06:33:58;;;;;;;9.20;3.70;;;;;;;-145.63;100.00;61273.97;4985440;28;20022;-67
2024/04/21 06:36:24;;;;;;;3.83;3.47;;;;;;;-145.63;100.00;61273.97;4979860;28;20034;-66
2024/04/21 06:38:51;;;;;;;5.45;2.92;;;;;;;-145.63;100.00;61273.97;4983957;28;20164;-67
2024/04/21 06:41:17;;;;;;;4.90;3.20;;;;;;;-145.63;100.00;61273.97;4980809;28;20049;-70
2024/04/21 06:43:43;;;;;;;6.28;3.75;;;;;;;-145.63;100.00;61273.97;4984358;28;20034;-66
2024/04/21 06:46:08;;;;;;;8.57;3.58;;;;;;;-145.63;100.00;61273.97;4983971;28;20050;-67
2024/04/21 06:48:34;;;;;;;6.65;3.47;;;;;;;-145.63;100.00;61273.97;4984512;28;20028;-66
2024/04/21 06:51:00;;;;;;;7.53;3.63;;;;;;;-145.63;100.00;61273.97;4993276;28;20538;-66
2024/04/21 06:53:25;;;;;;;5.85;3.70;;;;;;;-145.63;100.00;61273.97;4979303;28;20094;-70
2024/04/21 06:55:51;;;;;;;3.83;2.97;;;;;;;-145.63;100.00;61273.97;4979283;28;20042;-67
2024/04/21 06:58:18;;;;;;;4.15;2.83;;;;;;;-145.63;100.00;61273.97;4971764;28;20054;-69
2024/04/21 07:00:44;;;;;;;4.75;3.20;;;;;;;-145.63;100.00;61273.97;4975353;28;20171;-66
2024/04/21 07:03:10;;;;;;;3.47;3.17;;;;;;;-145.63;100.00;61273.97;4979217;28;20162;-65
2024/04/21 07:05:36;;;;;;;4.25;2.53;;;;;;;-145.63;100.00;61273.97;4983992;28;20026;-65
2024/04/21 07:08:01;;;;;;;5.50;2.55;;;;;;;-145.63;100.00;61273.97;4980221;28;20037;-68
2024/04/21 07:10:27;;;;;;;4.38;2.42;;;;;;;-145.63;100.00;61273.97;4986186;28;20129;-66
2024/04/21 07:12:53;;;;;;;3.28;2.70;;;;;;;-145.63;100.00;61273.97;4972282;28;20035;-65
2024/04/21 07:15:18;;;;;;;6.63;2.90;;;;;;;-145.63;100.00;61273.97;4977716;28;20027;-66
2024/04/21 07:17:44;;;;;;;5.88;3.10;;;;;;;-145.63;100.00;61273.97;4982871;28;20518;-66
2024/04/21 07:20:10;;;;;;;4.10;2.38;;;;;;;-145.63;100.00;61273.97;4981290;28;20054;-72
2024/04/21 07:22:35;;;;;;;4.63;2.38;;;;;;;-145.63;100.00;61273.97;4990743;28;20676;-66
2024/04/21 07:25:01;;;;;;;4.32;2.22;;;;;;;-145.63;100.00;61273.97;4982886;28;20038;-67
2024/04/21 07:27:27;;;;;;;2.20;2.00;;;;;;;-145.63;100.00;61273.97;4973214;28;20134;-67
2024/04/21 07:29:56;;;;;;;2.88;2.58;;;;;;;-145.63;100.00;61273.97;4983142;28;20037;-67
2024/04/21 07:32:21;;;;;;;5.15;2.38;;;;;;;-145.63;100.00;61273.97;4981870;28;20033;-66
2024/04/21 07:34:47;;;;;;;5.90;2.30;;;;;;;-145.63;100.00;61273.97;4981579;28;20047;-69
2024/04/21 07:37:13;;;;;;;4.05;2.30;;;;;;;-145.63;100.00;61273.97;4982725;28;20035;-69
2024/04/21 07:39:38;;;;;;;5.40;2.00;;;;;;;-145.63;100.00;61273.97;4986186;28;20441;-70
2024/04/21 07:42:04;;;;;;;3.20;2.05;;;;;;;-145.63;100.00;61273.97;4999163;28;20070;-66
2024/04/21 07:44:30;;;;;;;4.97;2.47;;;;;;;-145.63;100.00;61273.97;4987785;28;20037;-66
2024/04/21 07:46:55;;;;;;;4.88;1.95;;;;;;;-145.63;100.00;61273.97;4994524;28;20066;-64
2024/04/21 07:49:21;;;;;;;3.47;2.10;;;;;;;-145.63;100.00;61273.97;4983675;28;20172;-68
2024/04/21 07:51:47;;;;;;;3.05;2.05;;;;;;;-145.63;100.00;61273.97;4989908;28;20460;-65
2024/04/21 07:54:12;;;;;;;2.55;1.90;;;;;;;-145.63;100.00;61273.97;4982176;28;20057;-65
2024/04/21 07:56:38;;;;;;;4.05;2.00;;;;;;;-145.63;100.00;61273.97;4986323;28;20127;-67
2024/04/21 07:59:04;;;;;;;3.42;2.22;;;;;;;-145.63;100.00;61273.97;4982446;28;20096;-66
2024/04/21 08:01:29;;;;;;;3.20;2.20;;;;;;;-145.63;100.00;61273.97;4981088;28;20038;-70
2024/04/21 08:03:55;;;;;;;8.98;2.17;;;;;;;-145.63;100.00;61273.97;4987978;28;20455;-69
2024/04/21 08:06:21;;;;;;;5.82;1.88;;;;;;;-145.63;100.00;61273.97;4990337;28;20494;-65
2024/04/21 08:08:47;;;;;;;6.25;2.38;;;;;;;-145.63;100.00;61273.97;4990583;28;20463;-66
2024/04/21 08:11:12;;;;;;;4.03;2.10;;;;;;;-145.63;100.00;61273.97;4979041;28;20031;-65
2024/04/21 08:13:38;;;;;;;4.05;1.73;;;;;;;-145.63;100.00;61273.97;4983333;28;20034;-67
2024/04/21 08:16:04;;;;;;;3.47;2.13;;;;;;;-145.63;100.00;61273.97;4988063;28;20375;-65
2024/04/21 08:18:30;;;;;;;6.22;2.38;;;;;;;-145.63;100.00;61273.97;4985473;28;20054;-65
2024/04/21 08:20:55;;;;;;;10.93;2.85;;;;;;;-145.63;100.00;61273.97;4984362;28;20504;-67
2024/04/21 08:23:24;;;;;;;4.78;2.10;;;;;;;-145.63;100.00;61273.97;4987303;28;20448;-68
2024/04/21 08:25:50;;;;;;;3.05;1.67;;;;;;;-145.63;100.00;61273.97;4990572;28;20368;-69
2024/04/21 08:28:15;;;;;;;7.05;2.13;;;;;;;-145.63;100.00;61273.97;4983778;28;20085;-68
2024/04/21 08:30:43;;;;;;;4.95;2.10;;;;;;;-145.63;100.00;61273.97;4983797;28;20511;-68
2024/04/21 08:33:09;;;;;;;4.32;2.28;;;;;;;-145.63;100.00;61273.97;4980917;28;20165;-68
2024/04/21 08:35:35;;;;;;;3.13;2.10;;;;;;;-145.63;100.00;61273.97;4987806;28;20611;-68
2024/04/21 08:38:01;;;;;;;4.20;2.10;;;;;;;-145.63;100.00;61273.97;4988556;28;20033;-67
2024/04/21 08:40:27;;;;;;;7.53;2.20;;;;;;;-145.63;100.00;61273.97;4983388;28;20034;-67
2024/04/21 08:42:57;;;;;;;5.03;2.38;;;;;;;-145.63;100.00;61273.97;4988460;28;20420;-64
2024/04/21 08:45:26;;;;;;;3.85;1.90;;;;;;;-145.63;100.00;61273.97;4980321;28;20042;-67
2024/04/21 08:47:52;;;;;;;4.90;2.00;;;;;;;-145.63;100.00;61273.97;4986455;28;20387;-67
2024/04/21 08:50:19;;;;;;;3.13;2.10;;;;;;;-145.63;100.00;61273.97;4980831;28;20073;-68
2024/04/21 08:52:45;;;;;;;5.38;2.03;;;;;;;-145.63;100.00;61273.97;4988817;28;20026;-67
2024/04/21 08:55:11;;;;;;;5.70;2.50;;;;;;;-145.63;100.00;61273.97;4982264;28;20085;-67
2024/04/21 08:57:37;;;;;;;2.92;1.60;;;;;;;-145.63;100.00;61273.97;4985976;28;20029;-70
2024/04/21 09:00:04;;;;;;;3.30;2.47;;;;;;;-145.63;100.00;61273.97;4981284;28;20046;-66
2024/04/21 09:02:30;;;;;;;4.00;2.22;;;;;;;-145.63;100.00;61273.97;4985936;28;20400;-69
2024/04/21 09:04:56;;;;;;;14.00;7.85;;;;;;;-145.63;100.00;61273.97;4977119;28;20027;-66
2024/04/21 09:07:24;;;;;;;4.70;2.42;;;;;;;-145.63;100.00;61273.97;4987564;28;20037;-68
2024/04/21 09:09:50;;;;;;;7.78;1.85;;;;;;;-145.63;100.00;61273.97;4983088;28;20042;-68
2024/04/21 09:12:16;;;;;;;5.38;2.22;;;;;;;-145.63;100.00;61273.97;4980862;28;20038;-67
2024/04/21 09:14:43;;;;;;;6.53;1.90;;;;;;;-145.63;100.00;61273.97;4980837;28;20480;-68
2024/04/21 09:17:08;;;;;;;4.60;2.03;;;;;;;-145.63;100.00;61273.97;4982301;28;20069;-68
2024/04/21 09:19:34;;;;;;;4.50;2.20;;;;;;;-145.63;100.00;61273.97;4984836;28;20641;-66
2024/04/21 09:22:00;;;;;;;7.20;2.28;;;;;;;-145.63;100.00;61273.97;4982002;28;20058;-66
2024/04/21 09:24:26;;;;;;;4.88;2.15;;;;;;;-145.63;100.00;61273.97;4984208;28;20032;-68
2024/04/21 09:26:52;;;;;;;5.68;1.92;;;;;;;-145.63;100.00;61273.97;4980254;28;20046;-69
2024/04/21 09:29:18;;;;;;;5.38;2.10;;;;;;;-145.63;100.00;61273.97;4982293;28;20018;-68
2024/04/21 09:31:43;;;;;;;3.30;1.65;;;;;;;-145.63;100.00;61273.97;4980137;28;20469;-66
2024/04/21 09:34:11;;;;;;;3.75;2.10;;;;;;;-145.63;100.00;61273.97;4989043;28;20121;-68
2024/04/21 09:36:38;;;;;;;4.07;1.80;;;;;;;-145.63;100.00;61273.97;4982745;28;20034;-72
2024/04/21 09:39:05;;;;;;;5.53;1.95;;;;;;;-145.63;100.00;61273.97;4987327;28;20767;-68
2024/04/21 09:41:35;;;;;;;3.83;2.10;;;;;;;-145.63;100.00;61273.97;4976255;28;20019;-68
2024/04/21 09:44:02;;;;;;;3.63;1.75;;;;;;;-145.63;100.00;61273.97;4983960;28;20026;-68
2024/04/21 09:46:28;;;;;;;6.00;2.15;;;;;;;-145.63;100.00;61273.97;4981959;28;20037;-68
2024/04/21 09:48:55;;;;;;;5.15;2.00;;;;;;;-145.63;100.00;61273.97;4980306;28;20038;-68
2024/04/21 09:51:22;;;;;;;10.77;2.67;;;;;;;-145.63;100.00;61273.97;4983881;28;20054;-70
2024/04/21 09:53:48;;;;;;;4.80;2.17;;;;;;;-145.63;100.00;61273.97;4977426;28;20030;-67
2024/04/21 09:56:20;;;;;;;7.20;2.10;;;;;;;-145.63;100.00;61273.97;4974623;28;20058;-69
2024/04/21 09:58:53;;;;;;;5.57;2.13;;;;;;;-145.63;100.00;61273.97;4977418;28;20053;-67
2024/04/21 10:01:30;;;;;;;4.18;2.10;;;;;;;-145.63;100.00;61273.97;4980259;28;20089;-72
2024/04/21 10:04:00;;;;;;;7.50;2.25;;;;;;;-145.63;100.00;61273.97;4986528;28;20491;-70
2024/04/21 10:06:29;;;;;;;7.07;2.08;;;;;;;-145.63;100.00;61273.97;4988619;28;20046;-68
2024/04/21 10:09:00;;;;;;;7.10;1.92;;;;;;;-145.63;100.00;61273.97;4986175;28;20030;-69
2024/04/21 10:11:25;;;;;;;5.65;2.20;;;;;;;-145.63;100.00;61273.97;4982510;28;20019;-68
2024/04/21 10:13:52;;;;;;;5.13;1.45;;;;;;;-145.63;100.00;61273.97;4973296;28;20076;-71
2024/04/21 10:16:20;;;;;;;5.93;2.20;;;;;;;-145.63;100.00;61273.97;4977893;28;20034;-68
2024/04/21 10:18:46;;;;;;;3.03;1.92;;;;;;;-145.63;100.00;61273.97;4981181;28;20057;-69
2024/04/21 10:21:11;;;;;;;3.72;2.00;;;;;;;-145.63;100.00;61273.97;4983986;28;20026;-70
2024/04/21 10:23:39;;;;;;;3.80;1.98;;;;;;;-145.63;100.00;61273.97;4985777;28;20030;-67
2024/04/21 10:26:04;;;;;;;9.93;2.20;;;;;;;-145.63;100.00;61273.97;4984586;28;20018;-70
2024/04/21 10:28:30;;;;;;;4.40;1.90;;;;;;;-145.63;100.00;61273.97;4974493;28;20034;-69
2024/04/21 10:31:04;;;;;;;4.53;2.05;;;;;;;-145.63;100.00;61273.97;4989740;28;20039;-70
2024/04/21 10:33:29;;;;;;;5.00;1.90;;;;;;;-145.63;100.00;61273.97;4980103;28;20106;-66
2024/04/21 10:35:55;;;;;;;5.38;2.05;;;;;;;-145.63;100.00;61273.97;4984666;28;20041;-67
2024/04/21 10:38:21;;;;;;;5.30;1.92;;;;;;;-145.63;100.00;61273.97;4983528;28;20384;-66
2024/04/21 10:40:47;;;;;;;10.00;2.08;;;;;;;-145.63;100.00;61273.97;4987402;28;20042;-65
2024/04/21 10:43:15;;;;;;;2.97;1.63;;;;;;;-145.63;100.00;61273.97;4981178;28;20169;-67
2024/04/21 10:45:42;;;;;;;2.13;1.88;;;;;;;-145.63;100.00;61273.97;4987493;28;20076;-68
2024/04/21 10:48:09;;;;;;;3.95;1.88;;;;;;;-145.63;100.00;61273.97;4980222;28;20046;-68
2024/04/21 10:50:36;;;;;;;9.55;2.63;;;;;;;-145.63;100.00;61273.97;4985194;28;20081;-69
2024/04/21 10:53:04;;;;;;;2.03;1.67;;;;;;;-145.63;100.00;61273.97;4976134;28;20534;-68
2024/04/21 10:55:32;;;;;;;2.80;1.70;;;;;;;-145.63;100.00;61273.97;4980142;28;20056;-71
2024/04/21 10:57:59;;;;;;;5.47;1.77;;;;;;;-145.63;100.00;61273.97;4979991;28;20055;-74
2024/04/21 11:00:25;;;;;;;9.45;2.20;;;;;;;-145.63;100.00;61273.97;4981116;28;20066;-70
2024/04/21 11:02:50;;;;;;;3.20;2.00;;;;;;;-145.63;100.00;61273.97;4984841;28;20073;-66
2024/04/21 11:05:17;;;;;;;2.88;1.52;;;;;;;-145.63;100.00;61273.97;4977592;28;20046;-70